KEIK

Erie Municipal Airport

Erie, Colorado, USA
METAR KEIK 231054Z AUTO 00000KT 10SM CLR M07/M12 A3019 RMK AO2 T10751118
Observed Flight Rules
Jan-23 @ 10:54 UTC (an hour ago) Visual Flight Rules
Wind Visibility Clouds
Calm 10 miles
  • Clear skies
Temperatures Readings
Current -8°C / 18°F
Dewpoint -12°C / 10°F
Humidity 73%
Altimeter 30.19" Hg
Pressure 1022 hPa
Elevation 1564
METAR KEIK 231054Z AUTO 00000KT 10SM CLR M07/M12 A3019 RMK AO2 T10751118
Observed Flight Rules
Jan-23 @ 10:54 UTC
(an hour ago)
VFR
Wind Visibility
Calm 10 miles
Clouds
  • Clear skies
Temperature Dewpoint
-8°C / 18°F -12°C / 10°F
Humidity Altimeter Pressure
73% 30.19" Hg 1022 hPa